Kezdőlap
METAR-TAF:

METAR-TAF

Repülőterek :

Taos Regional Airport

Taos, Új-Mexikó, Amerikai Egyesült Államok

földrajzi szélesség: 36-27N, földrajzi hosszúság: 105-40W, magasság: 2161 m

Jelenlegi meteorológiai megfigyelések

A jelentés 19 perccel ezelõtt készült, 14:56 UTC
Nyugat-délnyugati szél 8 kt széllökések: 15 kt
Hőmérséklet 22°C
Páratartalom 19%
Légköri nyomás 1016 hPa
Látótávolság: 16.1 km
Kevés felhő 100 lábon

METAR: KSKX 181456Z AUTO 25008G15KT 10SM FEW001 22/M03 A3000 RMK AO2 SLP070 T02221028 51007

Idő: 09:15 (15:15 UTC)


TAF: hiányzik

Meteorológiai megfigyelések és előrejelzések több, mint 4000 repülőtéren (METAR és TAF jelentéseket).

A térképen piros és sárga pontok jelzik az elérhető meteorológiai állomásokat.

Mozgassa az egeret a pont fölött, hogy megjelenjen az állomás neve.

Azután kattintson az időjárási megfigyelések és előrejelzések megtekintéséhez.

A térkép megváltoztatása: kattintson a fekete keresztel jelölt zöld gombra ráközelítéshez, a vonallal jelölt zöld gombra távolításhoz, vagy a zöld nyilakra a szomszédos térképek eléréséhez.


METAR-TAF: